Rison, Maryland
Current Conditions -  °F | °C
As of 2:56 PM on Sunday 23 Nov 2014 (Local Time) from KNYG Reporting Station
Clear Clear  
Wind Chill: 55°   Ceiling: Unl
Heat Index: 55°   Visibility: 10mi
Dew Point: 29°   Wind: 5mph
Humidity: 37%   Direction: 210°SSW
Pressure: 30.11"   Gusts: NA
Location:  38.5593°N, 77.1565°W
Report Text: KNYG 231956Z AUTO 21004KT 10SM CLR 13/M02 A3011 RMK AO2 SLP196 T01281017 $
Loading
Personal Weather Stations






























Interactive Weather Map New forecast layout! Learn more

10-Day Weather Forecast

Advertisements
Track Severe Weather on mobile